Bromont (Roland Desourdy) Airport


Codes: CZBM/ZBM
Name: Bromont (Roland Desourdy) Airport
City: Bromont
Country: Canada
Elevation: 375 ft.
Wikipedia:

Photos at Bromont (Roland Desourdy) Airport


   Photos courtesy of SpottingLog. You can add your own sightings and photos by signing up for a free trial today.



No photos found.

Weather at Bromont (Roland Desourdy) Airport


Time (UTC)DescriptionTempratureWindCloud coverageVisibilityPressureHumidity
16-Jun-2024 00:00Scattered Clouds18°C2 mph, SW29%10000m1020hPa72%
16-Jun-2024 03:00Few Clouds15°C4 mph, SE20%10000m1020hPa76%
16-Jun-2024 06:00Clear Sky11°C2 mph, SE10%10000m1022hPa83%
16-Jun-2024 09:00Clear Sky7°C4 mph, S0%10000m1024hPa91%
16-Jun-2024 12:00Clear Sky13°C2 mph, SW1%10000m1026hPa72%
16-Jun-2024 15:00Broken Clouds17°C4 mph, W60%10000m1025hPa58%
16-Jun-2024 18:00Broken Clouds19°C7 mph, W80%10000m1023hPa52%
16-Jun-2024 21:00Overcast Clouds19°C2 mph, SW100%10000m1022hPa55%
17-Jun-2024 00:00Overcast Clouds15°C2 mph, E100%10000m1021hPa76%
17-Jun-2024 03:00Overcast Clouds14°C2 mph, SE100%10000m1020hPa66%
17-Jun-2024 06:00Overcast Clouds15°C2 mph, SE100%10000m1020hPa60%
17-Jun-2024 09:00Overcast Clouds15°C4 mph, SE100%10000m1018hPa53%
17-Jun-2024 12:00Overcast Clouds18°C4 mph, S100%10000m1018hPa66%
17-Jun-2024 15:00Broken Clouds22°C11 mph, SW67%10000m1017hPa63%
17-Jun-2024 18:00Broken Clouds26°C9 mph, SW75%10000m1015hPa61%
17-Jun-2024 21:00Clear Sky26°C7 mph, W0%10000m1016hPa69%
18-Jun-2024 00:00Clear Sky23°C4 mph, S1%10000m1016hPa88%
18-Jun-2024 03:00Clear Sky21°C4 mph, SE7%10000m1018hPa93%
18-Jun-2024 06:00Few Clouds20°C4 mph, S12%10000m1018hPa90%
18-Jun-2024 09:00Broken Clouds20°C4 mph, S80%10000m1019hPa91%
18-Jun-2024 12:00Overcast Clouds24°C7 mph, SW87%10000m1020hPa79%
18-Jun-2024 15:00Broken Clouds27°C9 mph, SW58%10000m1020hPa74%
18-Jun-2024 18:00Light Rain29°C9 mph, SW33%10000m1020hPa72%
18-Jun-2024 21:00Light Rain30°C4 mph, W12%10000m1020hPa70%
19-Jun-2024 00:00Light Rain26°C4 mph, SW8%10000m1019hPa88%
19-Jun-2024 03:00Light Rain23°C4 mph, S3%10000m1020hPa91%
19-Jun-2024 06:00Few Clouds22°C4 mph, S18%10000m1021hPa92%
19-Jun-2024 09:00Overcast Clouds22°C4 mph, SW100%10000m1022hPa93%
19-Jun-2024 12:00Broken Clouds25°C7 mph, SW84%10000m1023hPa86%
19-Jun-2024 15:00Overcast Clouds29°C7 mph, SW99%10000m1022hPa72%
19-Jun-2024 18:00Overcast Clouds30°C9 mph, SW95%10000m1021hPa70%
19-Jun-2024 21:00Overcast Clouds30°C9 mph, SW100%10000m1020hPa71%
20-Jun-2024 00:00Light Rain26°C4 mph, SW92%10000m1020hPa88%
20-Jun-2024 03:00Light Rain23°C7 mph, SW92%10000m1021hPa95%
20-Jun-2024 06:00Light Rain22°C7 mph, SW95%10000m1021hPa95%
20-Jun-2024 09:00Light Rain22°C7 mph, SW100%10000m1021hPa97%
20-Jun-2024 12:00Overcast Clouds24°C7 mph, SW98%10000m1021hPa93%
20-Jun-2024 15:00Broken Clouds28°C11 mph, SW77%10000m1021hPa75%
20-Jun-2024 18:00Light Rain28°C13 mph, W54%10000m1020hPa79%
20-Jun-2024 21:00Light Rain24°C11 mph, W48%7585m1020hPa92%